Terminal Aerodrome Forecast
Issued by NWS

Home | Current Version | Previous Version | Graphics & Text | Print | Product List | Glossary On
Versions: 1 2 3 4 5 6 7 8 9 10 11 12 13 14 15 16 17 18 19
000
FTUS43 KMPX 290916 AAB
TAFAXN
TAF AMD
KAXN 290916Z 2909/3006 VRB03KT P6SM -SHRA SCT050 OVC090
     FM291200 34009KT 4SM -RA BR OVC012
     FM291700 34015G22KT P6SM BKN025
     FM292000 35015G22KT P6SM FEW030 SCT200
     FM300100 35010KT P6SM SKC=

USA.gov is the U.S. government's official web portal to all federal, state and local government web resources and services.